Time;durP1;ratioP1;P1;durP2;ratioP2;P2;SDS_P1;SDS_P2;PMS_P1;PMS_P2;Temp;Humidity;BMP_temperature;BMP_pressure;BME280_temperature;BME280_humidity;BME280_pressure;Samples;Min_cycle;Max_cycle;Signal;HPM_P1;HPM_P2
2023/08/30 00:01:05;;;;;;;1.23;1.05;;;19.70;49.60;;;;;;7592413;23;20070;-74
2023/08/30 00:04:06;;;;;;;2.33;1.10;;;19.70;49.90;;;;;;7592298;23;20644;-75
2023/08/30 00:07:06;;;;;;;2.47;1.30;;;19.70;50.30;;;;;;7565694;23;20010;-74
2023/08/30 00:10:10;;;;;;;1.42;0.90;;;19.70;50.30;;;;;;7591852;23;20434;-74
2023/08/30 00:13:11;;;;;;;1.70;0.90;;;19.70;50.40;;;;;;7592727;23;20101;-75
2023/08/30 00:16:12;;;;;;;3.65;0.82;;;19.70;50.40;;;;;;7565963;23;20025;-74
2023/08/30 00:19:13;;;;;;;1.38;1.20;;;19.80;50.30;;;;;;7592463;23;20392;-76
2023/08/30 00:22:14;;;;;;;0.80;0.73;;;19.80;50.20;;;;;;7592314;23;20060;-75
2023/08/30 00:25:16;;;;;;;2.53;0.90;;;19.90;50.00;;;;;;7543015;23;20136;-75
2023/08/30 00:28:16;;;;;;;2.13;1.13;;;19.90;49.80;;;;;;7566473;23;20036;-75
2023/08/30 00:31:17;;;;;;;1.17;0.98;;;20.00;49.80;;;;;;7566383;23;20408;-75
2023/08/30 00:34:18;;;;;;;1.45;1.13;;;20.00;49.70;;;;;;7566221;23;20037;-75
2023/08/30 00:37:19;;;;;;;2.03;0.90;;;20.00;49.60;;;;;;7541571;23;20009;-74
2023/08/30 00:40:24;;;;;;;1.67;1.20;;;20.00;49.40;;;;;;7565227;23;20145;-74
2023/08/30 00:43:25;;;;;;;1.08;0.82;;;20.10;49.30;;;;;;7591878;23;20126;-75
2023/08/30 00:46:27;;;;;;;2.88;0.88;;;20.10;49.10;;;;;;7591453;23;20009;-75
2023/08/30 00:49:31;;;;;;;1.48;1.02;;;20.10;48.90;;;;;;7565431;23;20297;-74
2023/08/30 00:52:32;;;;;;;1.75;0.85;;;20.20;48.80;;;;;;7565806;23;20217;-74
2023/08/30 00:55:37;;;;;;;1.38;0.90;;;20.10;48.80;;;;;;7565879;23;20002;-75
2023/08/30 00:58:38;;;;;;;3.72;1.23;;;20.10;49.10;;;;;;7592031;23;20077;-75
2023/08/30 01:01:41;;;;;;;3.08;1.33;;;20.00;49.50;;;;;;7565086;23;20022;-75
2023/08/30 01:04:42;;;;;;;3.60;1.70;;;19.90;50.10;;;;;;7591406;23;20006;-74
2023/08/30 01:07:43;;;;;;;4.45;2.00;;;19.80;50.30;;;;;;7565020;23;20077;-75
2023/08/30 01:11:08;;;;;;;3.05;1.88;;;19.70;50.70;;;;;;7591367;23;20040;-75
2023/08/30 01:14:14;;;;;;;1.60;1.20;;;19.60;50.90;;;;;;7592220;23;20014;-75
2023/08/30 01:17:18;;;;;;;3.58;1.20;;;19.50;51.00;;;;;;7566287;23;20013;-74
2023/08/30 01:20:22;;;;;;;1.95;1.60;;;19.50;51.10;;;;;;7591542;23;20006;-75
2023/08/30 01:23:36;;;;;;;2.75;1.00;;;19.40;51.20;;;;;;7566711;23;20010;-75
2023/08/30 01:26:57;;;;;;;2.05;0.93;;;19.40;51.50;;;;;;7565889;23;20674;-75
2023/08/30 01:29:59;;;;;;;1.02;0.90;;;19.30;51.60;;;;;;7591868;23;20017;-75
2023/08/30 01:33:02;;;;;;;3.25;1.10;;;19.30;51.90;;;;;;7565770;23;20331;-75
2023/08/30 01:36:05;;;;;;;2.33;1.23;;;19.30;52.00;;;;;;7565690;23;20033;-74
2023/08/30 01:39:09;;;;;;;1.45;1.35;;;19.20;52.10;;;;;;7592014;23;20032;-74
2023/08/30 01:42:11;;;;;;;5.40;1.30;;;19.20;52.20;;;;;;7565141;23;20013;-75
2023/08/30 01:45:14;;;;;;;2.90;1.38;;;19.20;52.30;;;;;;7565359;23;20109;-75
2023/08/30 01:48:17;;;;;;;2.22;1.25;;;19.10;52.30;;;;;;7565235;23;20006;-75
2023/08/30 01:51:18;;;;;;;1.90;1.50;;;19.10;52.20;;;;;;7564705;23;20104;-74
2023/08/30 01:54:20;;;;;;;2.03;1.20;;;19.20;52.90;;;;;;7565385;23;20006;-75
2023/08/30 01:57:21;;;;;;;2.47;1.25;;;19.10;52.20;;;;;;7591061;23;20068;-74
2023/08/30 02:00:22;;;;;;;7.90;1.50;;;19.10;52.90;;;;;;7563729;23;20061;-75
2023/08/30 02:03:23;;;;;;;1.77;1.30;;;19.10;52.40;;;;;;7564198;23;20086;-74
2023/08/30 02:06:36;;;;;;;1.50;1.00;;;19.10;52.50;;;;;;7564425;23;20006;-74
2023/08/30 02:09:57;;;;;;;1.08;0.85;;;19.00;52.50;;;;;;7564698;23;20014;-74
2023/08/30 02:13:00;;;;;;;1.60;0.80;;;19.00;52.50;;;;;;7590989;23;20363;-73
2023/08/30 02:16:02;;;;;;;2.40;1.15;;;19.00;52.50;;;;;;7564917;23;20018;-74
2023/08/30 02:19:02;;;;;;;1.67;0.80;;;19.00;52.50;;;;;;7564921;23;20079;-73
2023/08/30 02:22:03;;;;;;;0.85;0.80;;;18.90;52.40;;;;;;7564430;23;20006;-74
2023/08/30 02:25:05;;;;;;;1.38;0.90;;;18.90;52.40;;;;;;7591281;23;20014;-75
2023/08/30 02:28:05;;;;;;;2.83;0.95;;;18.80;52.50;;;;;;7564861;23;20014;-74
2023/08/30 02:31:07;;;;;;;5.05;0.90;;;18.80;52.70;;;;;;7564098;23;20018;-74
2023/08/30 02:34:08;;;;;;;3.35;1.30;;;18.80;52.80;;;;;;7540591;23;20053;-74
2023/08/30 02:37:11;;;;;;;1.63;1.10;;;18.80;52.80;;;;;;7564358;23;20010;-73
2023/08/30 02:40:12;;;;;;;3.05;0.90;;;18.80;52.90;;;;;;7590463;23;20604;-74
2023/08/30 02:43:13;;;;;;;1.38;1.13;;;18.80;52.90;;;;;;7564399;23;20025;-74
2023/08/30 02:46:13;;;;;;;2.88;1.10;;;18.70;53.00;;;;;;7564108;23;20348;-76
2023/08/30 02:49:14;;;;;;;2.63;1.20;;;18.80;53.10;;;;;;7563931;23;20032;-74
2023/08/30 02:52:16;;;;;;;4.45;0.90;;;18.70;53.00;;;;;;7564340;23;20033;-74
2023/08/30 02:55:18;;;;;;;5.45;1.00;;;18.80;53.10;;;;;;7563530;23;20469;-75
2023/08/30 02:58:18;;;;;;;2.58;0.82;;;18.70;53.30;;;;;;7590700;23;20010;-73
2023/08/30 03:01:19;;;;;;;3.90;1.00;;;18.70;53.40;;;;;;7590399;23;20040;-74
2023/08/30 03:04:22;;;;;;;1.42;0.88;;;18.70;53.40;;;;;;7540768;23;20020;-75
2023/08/30 03:07:23;;;;;;;1.40;0.93;;;18.70;53.50;;;;;;7540374;23;20300;-74
2023/08/30 03:10:24;;;;;;;5.22;1.02;;;18.60;53.50;;;;;;7563805;23;20021;-75
2023/08/30 03:13:25;;;;;;;1.02;0.90;;;18.60;53.70;;;;;;7564561;23;20675;-74
2023/08/30 03:16:26;;;;;;;5.55;1.23;;;18.50;53.70;;;;;;7540245;23;20044;-74
2023/08/30 03:19:28;;;;;;;1.17;1.08;;;18.50;53.80;;;;;;7564011;23;20069;-74
2023/08/30 03:22:29;;;;;;;4.00;1.25;;;18.50;53.70;;;;;;7564593;23;20014;-74
2023/08/30 03:25:30;;;;;;;3.50;1.08;;;18.50;53.80;;;;;;7590611;23;20327;-73
2023/08/30 03:28:31;;;;;;;1.48;1.00;;;18.50;53.90;;;;;;7590488;23;20014;-74
2023/08/30 03:31:32;;;;;;;0.77;0.75;;;18.50;53.90;;;;;;7590020;23;20014;-75
2023/08/30 03:34:33;;;;;;;1.00;0.80;;;18.50;54.00;;;;;;7563692;23;20017;-73
2023/08/30 03:37:34;;;;;;;1.13;0.85;;;18.50;54.00;;;;;;7539837;23;20010;-73
2023/08/30 03:40:36;;;;;;;0.82;0.73;;;18.50;54.00;;;;;;7563849;23;20046;-74
2023/08/30 03:43:37;;;;;;;4.30;1.00;;;18.40;54.00;;;;;;7564487;23;20151;-74
2023/08/30 03:46:38;;;;;;;3.25;1.38;;;18.40;54.10;;;;;;7564153;23;20013;-75
2023/08/30 03:49:39;;;;;;;1.00;0.90;;;18.40;54.10;;;;;;7563796;23;20414;-74
2023/08/30 03:52:41;;;;;;;1.17;0.88;;;18.40;54.20;;;;;;7590383;23;20092;-75
2023/08/30 03:55:42;;;;;;;3.08;0.85;;;18.30;54.20;;;;;;7590244;23;20436;-74
2023/08/30 03:58:44;;;;;;;1.35;0.90;;;18.30;54.30;;;;;;7590234;23;20440;-75
2023/08/30 04:01:46;;;;;;;2.65;1.27;;;18.40;54.40;;;;;;7589509;23;20013;-74
2023/08/30 04:04:50;;;;;;;2.05;1.10;;;18.40;54.40;;;;;;7563081;23;20076;-73
2023/08/30 04:07:51;;;;;;;0.80;0.65;;;18.30;54.40;;;;;;7563975;23;20010;-74
2023/08/30 04:10:53;;;;;;;1.38;1.00;;;18.30;54.50;;;;;;7589591;23;20066;-74
2023/08/30 04:13:54;;;;;;;3.33;1.17;;;18.30;54.60;;;;;;7563357;23;20028;-74
2023/08/30 04:16:55;;;;;;;1.00;0.90;;;18.30;54.70;;;;;;7590147;23;20010;-74
2023/08/30 04:19:56;;;;;;;2.47;1.27;;;18.30;54.80;;;;;;7589698;23;20062;-75
2023/08/30 04:22:57;;;;;;;1.23;0.82;;;18.30;54.90;;;;;;7590112;23;20022;-75
2023/08/30 04:25:59;;;;;;;1.50;1.05;;;18.20;54.90;;;;;;7564273;23;20024;-75
2023/08/30 04:28:59;;;;;;;1.15;0.93;;;18.20;55.00;;;;;;7564528;23;20443;-75
2023/08/30 04:32:00;;;;;;;6.70;1.45;;;18.10;55.20;;;;;;7563898;23;20353;-76
2023/08/30 04:35:02;;;;;;;2.35;1.15;;;18.10;55.40;;;;;;7564398;23;20585;-75
2023/08/30 04:38:03;;;;;;;4.00;1.08;;;18.00;55.50;;;;;;7542188;23;20045;-74
2023/08/30 04:41:04;;;;;;;0.70;0.60;;;18.00;55.70;;;;;;7566063;23;20491;-74
2023/08/30 04:44:08;;;;;;;1.45;0.93;;;18.00;55.80;;;;;;7565990;23;20324;-73
2023/08/30 04:47:09;;;;;;;3.15;1.33;;;18.00;55.80;;;;;;7566076;23;20010;-75
2023/08/30 04:50:11;;;;;;;2.08;1.15;;;18.00;55.80;;;;;;7565748;23;20101;-76
2023/08/30 04:53:12;;;;;;;0.75;0.73;;;18.00;55.80;;;;;;7565940;23;20036;-75
2023/08/30 04:56:17;;;;;;;3.85;1.10;;;18.00;55.90;;;;;;7541375;23;20014;-74
2023/08/30 04:59:18;;;;;;;1.23;1.13;;;17.90;55.80;;;;;;7592303;23;20069;-74
2023/08/30 05:02:22;;;;;;;1.13;0.88;;;17.90;55.80;;;;;;7566084;23;20013;-76
2023/08/30 05:05:34;;;;;;;1.92;1.27;;;17.90;55.80;;;;;;7565455;23;20084;-75
2023/08/30 05:08:35;;;;;;;2.17;1.42;;;17.90;55.90;;;;;;7565024;23;20045;-75
2023/08/30 05:11:36;;;;;;;1.55;1.02;;;17.90;56.00;;;;;;7564746;23;20104;-74
2023/08/30 05:14:37;;;;;;;1.80;1.10;;;17.80;56.10;;;;;;7565147;23;20021;-75
2023/08/30 05:17:38;;;;;;;2.05;1.10;;;17.80;56.30;;;;;;7591502;23;20040;-74
2023/08/30 05:20:39;;;;;;;1.27;1.05;;;17.70;56.40;;;;;;7564960;23;20092;-75
2023/08/30 05:23:43;;;;;;;1.95;1.17;;;17.70;56.40;;;;;;7592145;23;20069;-74
2023/08/30 05:26:46;;;;;;;4.30;1.00;;;17.70;56.50;;;;;;7565186;23;20041;-74
2023/08/30 05:29:48;;;;;;;3.08;0.95;;;17.70;56.60;;;;;;7564802;23;20476;-74
2023/08/30 05:32:49;;;;;;;4.18;1.58;;;17.70;56.60;;;;;;7565448;23;20025;-75
2023/08/30 05:35:59;;;;;;;2.35;1.60;;;17.70;56.60;;;;;;7543250;23;20006;-76
2023/08/30 05:39:06;;;;;;;4.28;1.20;;;17.80;56.60;;;;;;7565009;23;20184;-75
2023/08/30 05:42:09;;;;;;;3.90;1.10;;;17.80;56.60;;;;;;7563788;23;20745;-75
2023/08/30 05:45:10;;;;;;;1.63;0.95;;;17.90;56.60;;;;;;7540585;23;20025;-75
2023/08/30 05:48:11;;;;;;;3.88;1.23;;;17.90;56.60;;;;;;7563401;23;20025;-75
2023/08/30 05:51:12;;;;;;;3.28;1.02;;;18.00;56.60;;;;;;7564035;23;20066;-74
2023/08/30 05:54:12;;;;;;;2.80;1.17;;;18.00;56.70;;;;;;7540526;23;20392;-75
2023/08/30 05:57:13;;;;;;;1.20;1.10;;;18.00;56.60;;;;;;7564479;23;20013;-74
2023/08/30 06:00:14;;;;;;;2.65;1.27;;;18.10;56.50;;;;;;7564578;23;20009;-74
2023/08/30 06:03:15;;;;;;;1.75;1.23;;;18.10;56.40;;;;;;7564836;23;20033;-75
2023/08/30 06:06:16;;;;;;;1.83;1.20;;;18.10;56.40;;;;;;7590368;23;20009;-75
2023/08/30 06:09:17;;;;;;;1.05;0.95;;;18.10;56.30;;;;;;7590698;23;20010;-74
2023/08/30 06:12:18;;;;;;;2.53;1.60;;;18.10;56.30;;;;;;7564294;23;20040;-74
2023/08/30 06:15:19;;;;;;;2.42;1.25;;;18.00;56.20;;;;;;7590709;23;20023;-75
2023/08/30 06:18:20;;;;;;;2.45;1.60;;;18.00;56.30;;;;;;7591096;23;20096;-74
2023/08/30 06:21:21;;;;;;;5.10;1.40;;;18.00;56.30;;;;;;7590615;23;20029;-74
2023/08/30 06:24:22;;;;;;;2.63;1.20;;;18.00;56.30;;;;;;7564132;23;20079;-74
2023/08/30 06:27:24;;;;;;;3.90;1.35;;;18.00;56.30;;;;;;7563978;23;20023;-74
2023/08/30 06:30:29;;;;;;;4.55;1.40;;;17.90;56.40;;;;;;7589944;23;20020;-74
2023/08/30 06:33:30;;;;;;;7.07;1.30;;;17.90;56.60;;;;;;7590588;23;20068;-74
2023/08/30 06:36:31;;;;;;;2.45;1.10;;;17.90;56.60;;;;;;7539929;23;20013;-75
2023/08/30 06:39:36;;;;;;;3.38;1.85;;;17.90;56.60;;;;;;7589697;23;20014;-74
2023/08/30 06:42:38;;;;;;;2.30;1.15;;;18.10;56.70;;;;;;7589403;23;20020;-75
2023/08/30 06:45:39;;;;;;;2.03;1.25;;;18.00;56.60;;;;;;7590730;23;20006;-75
2023/08/30 06:48:40;;;;;;;2.92;1.25;;;18.10;56.60;;;;;;7563974;23;20018;-74
2023/08/30 06:51:40;;;;;;;1.65;1.20;;;18.10;56.50;;;;;;7590499;23;20048;-73
2023/08/30 06:54:41;;;;;;;9.27;1.10;;;18.20;56.30;;;;;;7590440;23;20107;-75
2023/08/30 06:57:49;;;;;;;10.90;1.88;;;18.30;56.20;;;;;;7590476;23;20097;-75
2023/08/30 07:00:50;;;;;;;8.65;1.38;;;18.30;56.10;;;;;;7589506;23;20076;-75
2023/08/30 07:03:51;;;;;;;3.75;1.45;;;18.40;56.00;;;;;;7563982;23;20014;-76
2023/08/30 07:06:52;;;;;;;2.95;1.58;;;18.40;55.90;;;;;;7563455;23;20126;-74
2023/08/30 07:09:52;;;;;;;2.53;1.33;;;18.50;56.00;;;;;;7563364;23;20020;-75
2023/08/30 07:12:53;;;;;;;2.97;1.27;;;18.50;55.80;;;;;;7589955;23;20105;-75
2023/08/30 07:15:54;;;;;;;2.80;1.20;;;18.60;55.80;;;;;;7564099;23;20079;-73
2023/08/30 07:18:55;;;;;;;1.42;1.20;;;18.70;55.70;;;;;;7563837;23;20066;-75
2023/08/30 07:21:56;;;;;;;4.57;1.63;;;18.80;55.50;;;;;;7540036;23;20049;-75
2023/08/30 07:24:56;;;;;;;2.17;1.42;;;18.90;55.50;;;;;;7590425;23;20013;-76
2023/08/30 07:27:57;;;;;;;1.90;1.30;;;19.00;55.30;;;;;;7563745;23;20046;-74
2023/08/30 07:31:05;;;;;;;2.50;1.50;;;19.10;55.10;;;;;;7563931;23;20459;-75
2023/08/30 07:34:05;;;;;;;5.07;1.17;;;19.30;54.80;;;;;;7590282;23;20014;-74
2023/08/30 07:37:18;;;;;;;4.78;1.17;;;19.40;54.70;;;;;;7590035;23;20726;-75
2023/08/30 07:40:20;;;;;;;2.90;1.40;;;19.50;54.40;;;;;;7590181;23;20085;-75
2023/08/30 07:43:21;;;;;;;2.22;1.23;;;19.50;54.20;;;;;;7563803;23;20101;-75
2023/08/30 07:46:22;;;;;;;1.48;1.27;;;19.60;54.10;;;;;;7564543;23;20013;-75
2023/08/30 07:49:23;;;;;;;4.90;1.58;;;19.70;53.90;;;;;;7563246;23;20017;-75
2023/08/30 07:52:24;;;;;;;2.38;1.67;;;19.70;53.70;;;;;;7563922;23;20010;-75
2023/08/30 07:55:25;;;;;;;1.73;1.20;;;19.90;53.60;;;;;;7590028;23;20025;-75
2023/08/30 07:58:26;;;;;;;3.05;1.38;;;20.00;53.40;;;;;;7591016;23;20034;-75
2023/08/30 08:01:27;;;;;;;6.40;1.45;;;20.10;53.30;;;;;;7564218;23;20088;-76
2023/08/30 08:04:27;;;;;;;2.33;1.33;;;20.20;53.10;;;;;;7589843;23;20061;-74
2023/08/30 08:07:28;;;;;;;1.67;1.33;;;20.30;52.90;;;;;;7563603;23;20025;-75
2023/08/30 08:10:34;;;;;;;2.70;1.42;;;20.30;52.70;;;;;;7589663;23;20049;-75
2023/08/30 08:13:34;;;;;;;3.58;1.45;;;20.40;52.50;;;;;;7592254;23;20097;-75
2023/08/30 08:16:36;;;;;;;3.58;1.38;;;20.50;52.30;;;;;;7592240;23;20021;-73
2023/08/30 08:19:39;;;;;;;4.10;1.83;;;20.50;52.10;;;;;;7591884;23;20097;-75
2023/08/30 08:22:40;;;;;;;3.17;1.73;;;20.60;52.00;;;;;;7541822;23;20014;-75
2023/08/30 08:25:41;;;;;;;2.22;1.70;;;20.70;51.70;;;;;;7592182;23;20013;-74
2023/08/30 08:28:42;;;;;;;2.55;1.80;;;20.80;51.70;;;;;;7565196;23;20791;-75
2023/08/30 08:31:42;;;;;;;2.47;1.73;;;20.90;51.60;;;;;;7591378;23;20014;-75
2023/08/30 08:34:43;;;;;;;2.25;1.50;;;20.90;51.40;;;;;;7565770;23;20069;-73
2023/08/30 08:37:44;;;;;;;3.33;1.77;;;21.00;51.30;;;;;;7592059;23;20016;-73
2023/08/30 08:40:45;;;;;;;4.15;1.67;;;21.00;51.30;;;;;;7565407;23;20009;-76
2023/08/30 08:43:46;;;;;;;2.42;1.70;;;21.10;51.10;;;;;;7542320;23;20021;-75
2023/08/30 08:46:48;;;;;;;5.85;1.50;;;21.10;51.00;;;;;;7592772;23;20097;-74
2023/08/30 08:49:50;;;;;;;4.18;1.83;;;21.10;51.00;;;;;;7591426;23;20459;-75
2023/08/30 08:52:52;;;;;;;2.92;1.50;;;21.20;50.90;;;;;;7592207;23;20048;-75
2023/08/30 08:55:56;;;;;;;9.15;2.42;;;21.30;50.80;;;;;;7541513;23;20013;-74
2023/08/30 08:58:57;;;;;;;4.07;1.52;;;21.40;50.60;;;;;;7565575;23;20648;-74
2023/08/30 09:01:59;;;;;;;2.50;1.60;;;21.50;50.20;;;;;;7591357;23;20145;-75
2023/08/30 09:05:01;;;;;;;3.45;1.55;;;21.50;50.10;;;;;;7565083;23;20073;-75
2023/08/30 09:08:04;;;;;;;2.05;1.30;;;21.50;50.20;;;;;;7541206;23;20013;-74
2023/08/30 09:11:05;;;;;;;1.50;1.40;;;21.60;50.00;;;;;;7591313;23;20088;-75
2023/08/30 09:14:05;;;;;;;2.47;1.80;;;21.70;49.90;;;;;;7565085;23;20010;-75
2023/08/30 09:17:06;;;;;;;2.58;1.63;;;21.90;49.70;;;;;;7591003;23;20094;-75
2023/08/30 09:20:09;;;;;;;2.47;1.20;;;22.10;49.50;;;;;;7590837;23;20483;-77
2023/08/30 09:23:18;;;;;;;1.70;1.33;;;22.30;49.10;;;;;;7564579;23;20010;-76
2023/08/30 09:26:19;;;;;;;5.63;2.10;;;22.30;48.50;;;;;;7564375;23;20013;-75
2023/08/30 09:29:22;;;;;;;6.32;3.28;;;22.40;48.40;;;;;;7590918;23;20010;-76
2023/08/30 09:32:22;;;;;;;6.63;3.17;;;22.50;48.40;;;;;;7590856;23;20093;-75
2023/08/30 09:35:23;;;;;;;3.67;2.00;;;22.70;48.20;;;;;;7590953;23;20384;-73
2023/08/30 09:38:25;;;;;;;1.50;1.40;;;22.80;47.90;;;;;;7591407;23;20636;-75
2023/08/30 09:41:26;;;;;;;5.57;1.80;;;22.90;47.40;;;;;;7564846;23;20009;-74
2023/08/30 09:44:29;;;;;;;3.58;1.38;;;22.90;47.10;;;;;;7564155;23;20017;-75
2023/08/30 09:47:30;;;;;;;1.17;1.02;;;22.90;47.30;;;;;;7591071;23;20116;-75
2023/08/30 09:50:35;;;;;;;4.38;2.03;;;23.10;47.30;;;;;;7591506;23;20014;-76
2023/08/30 09:53:45;;;;;;;1.55;1.20;;;23.20;46.80;;;;;;7591688;23;20010;-75
2023/08/30 09:56:47;;;;;;;1.58;1.40;;;23.30;46.40;;;;;;7591053;23;20030;-74
2023/08/30 09:59:49;;;;;;;2.13;1.35;;;23.50;46.20;;;;;;7564514;23;20337;-74
2023/08/30 10:02:50;;;;;;;1.70;1.58;;;23.60;45.70;;;;;;7591431;23;20025;-74
2023/08/30 10:05:51;;;;;;;2.60;1.30;;;23.70;45.60;;;;;;7590730;23;20038;-75
2023/08/30 10:08:54;;;;;;;2.70;1.40;;;23.80;45.20;;;;;;7565107;23;20018;-73
2023/08/30 10:11:58;;;;;;;5.07;1.90;;;23.80;44.90;;;;;;7590767;23;20743;-75
2023/08/30 10:14:59;;;;;;;4.15;1.85;;;23.80;44.90;;;;;;7564663;23;20479;-75
2023/08/30 10:18:02;;;;;;;1.85;1.42;;;23.80;44.70;;;;;;7565291;23;20136;-76
2023/08/30 10:21:08;;;;;;;1.80;1.50;;;23.90;44.60;;;;;;7540905;23;20020;-77
2023/08/30 10:24:11;;;;;;;2.83;1.52;;;24.00;44.30;;;;;;7590834;23;20469;-76
2023/08/30 10:27:14;;;;;;;2.38;1.60;;;24.00;44.10;;;;;;7564403;23;20037;-76
2023/08/30 10:30:17;;;;;;;2.63;1.50;;;24.10;44.00;;;;;;7590666;23;20021;-77
2023/08/30 10:33:18;;;;;;;2.88;1.80;;;24.20;43.90;;;;;;7540075;23;20033;-76
2023/08/30 10:36:23;;;;;;;3.25;1.83;;;24.20;43.90;;;;;;7590668;23;20057;-74
2023/08/30 10:39:42;;;;;;;1.98;1.40;;;24.30;43.90;;;;;;7564516;23;20092;-75
2023/08/30 10:42:43;;;;;;;2.72;1.20;;;24.40;43.80;;;;;;7563999;23;20427;-74
2023/08/30 10:45:44;;;;;;;4.32;1.58;;;24.50;43.70;;;;;;7540872;23;20021;-75
2023/08/30 10:48:45;;;;;;;4.45;1.83;;;24.70;44.10;;;;;;7590563;23;20006;-75
2023/08/30 10:51:56;;;;;;;3.22;1.90;;;24.90;43.40;;;;;;7589697;23;20144;-76
2023/08/30 10:55:07;;;;;;;3.15;1.73;;;25.10;43.00;;;;;;7563750;23;20017;-73
2023/08/30 10:58:14;;;;;;;1.98;1.35;;;25.50;42.60;;;;;;7589675;23;20006;-76
2023/08/30 11:01:15;;;;;;;3.47;1.30;;;25.80;42.00;;;;;;7563060;23;20332;-75
2023/08/30 11:04:17;;;;;;;2.00;1.35;;;26.10;41.40;;;;;;7587390;23;20085;-75
2023/08/30 11:07:19;;;;;;;4.30;1.55;;;26.40;41.00;;;;;;7589956;23;20116;-74
2023/08/30 11:10:21;;;;;;;4.47;1.42;;;26.60;40.50;;;;;;7589413;23;20478;-76
2023/08/30 11:13:22;;;;;;;1.30;1.20;;;26.60;39.80;;;;;;7590129;23;20017;-74
2023/08/30 11:16:22;;;;;;;1.50;1.30;;;26.90;39.60;;;;;;7590254;23;20490;-75
2023/08/30 11:19:23;;;;;;;5.38;1.30;;;26.90;38.90;;;;;;7590629;23;20006;-75
2023/08/30 11:22:25;;;;;;;1.20;1.10;;;27.00;38.60;;;;;;7590623;23;20624;-75
2023/08/30 11:25:26;;;;;;;1.40;1.17;;;27.10;38.70;;;;;;7590528;23;20097;-76
2023/08/30 11:28:26;;;;;;;4.43;1.10;;;27.40;38.20;;;;;;7590748;23;20073;-72
2023/08/30 11:31:27;;;;;;;2.90;1.00;;;27.70;37.40;;;;;;7563244;23;20131;-75
2023/08/30 11:34:28;;;;;;;1.38;1.10;;;28.00;36.80;;;;;;7563837;23;20028;-75
2023/08/30 11:37:29;;;;;;;2.65;1.38;;;28.20;36.20;;;;;;7563605;23;20005;-75
2023/08/30 11:40:32;;;;;;;1.52;1.40;;;28.10;35.90;;;;;;7563171;23;20101;-77
2023/08/30 11:43:33;;;;;;;3.05;1.40;;;27.90;36.00;;;;;;7563490;23;20129;-74
2023/08/30 11:46:34;;;;;;;4.03;1.30;;;28.00;35.90;;;;;;7590917;23;20487;-75
2023/08/30 11:49:36;;;;;;;3.95;1.27;;;28.10;35.50;;;;;;7565756;23;20041;-74
2023/08/30 11:52:38;;;;;;;11.50;1.10;;;28.20;35.20;;;;;;7592626;23;20096;-75
2023/08/30 11:55:40;;;;;;;2.50;1.10;;;28.10;35.10;;;;;;7592213;23;20018;-74
2023/08/30 11:58:41;;;;;;;1.48;1.23;;;28.00;35.10;;;;;;7592133;23;20101;-74
2023/08/30 12:01:41;;;;;;;1.40;1.30;;;27.80;35.10;;;;;;7565241;23;20713;-74
2023/08/30 12:04:45;;;;;;;2.83;1.00;;;28.00;35.00;;;;;;7591739;23;20010;-75
2023/08/30 12:07:46;;;;;;;1.30;1.20;;;28.20;34.60;;;;;;7592284;23;20531;-75
2023/08/30 12:10:47;;;;;;;3.17;1.23;;;28.40;34.50;;;;;;7592627;23;20408;-75
2023/08/30 12:13:48;;;;;;;1.27;1.15;;;28.70;33.80;;;;;;7542112;23;20037;-76
2023/08/30 12:16:49;;;;;;;1.58;1.10;;;28.90;33.50;;;;;;7591978;23;20148;-74
2023/08/30 12:19:57;;;;;;;1.25;1.02;;;29.00;33.40;;;;;;7591741;23;20028;-75
2023/08/30 12:22:58;;;;;;;0.90;0.90;;;29.00;33.20;;;;;;7592030;23;20018;-76
2023/08/30 12:26:04;;;;;;;2.20;1.10;;;29.00;33.00;;;;;;7566271;23;20025;-77
2023/08/30 12:29:06;;;;;;;6.88;1.55;;;29.40;32.50;;;;;;7592389;23;20017;-73
2023/08/30 12:32:07;;;;;;;1.65;1.00;;;30.20;31.50;;;;;;7565405;23;20028;-75
2023/08/30 12:35:09;;;;;;;4.88;1.20;;;30.30;30.70;;;;;;7591802;23;20012;-77
2023/08/30 12:38:11;;;;;;;1.30;1.20;;;30.30;30.90;;;;;;7566400;23;20010;-75
2023/08/30 12:41:12;;;;;;;3.60;1.23;;;30.50;30.50;;;;;;7541754;23;20028;-74
2023/08/30 12:44:13;;;;;;;4.82;1.20;;;30.70;30.00;;;;;;7591897;23;20010;-73
2023/08/30 12:47:14;;;;;;;1.83;0.80;;;30.90;29.90;;;;;;7565916;23;20037;-74
2023/08/30 12:50:15;;;;;;;1.92;1.10;;;31.10;29.50;;;;;;7592148;23;20104;-76
2023/08/30 12:53:16;;;;;;;1.10;0.95;;;30.80;29.80;;;;;;7592064;23;20084;-74
2023/08/30 12:56:17;;;;;;;1.10;1.00;;;31.00;30.00;;;;;;7565840;23;20009;-75
2023/08/30 12:59:18;;;;;;;1.90;0.80;;;31.50;29.10;;;;;;7540867;23;20010;-73
2023/08/30 13:02:19;;;;;;;1.30;1.13;;;31.30;29.00;;;;;;7565546;23;20037;-74
2023/08/30 13:05:21;;;;;;;2.33;0.98;;;31.40;29.00;;;;;;7591086;23;20069;-75
2023/08/30 13:08:21;;;;;;;5.78;1.95;;;31.80;28.40;;;;;;7592306;23;20320;-75
2023/08/30 13:11:26;;;;;;;3.97;0.95;;;32.10;27.80;;;;;;7565045;23;20013;-75
2023/08/30 13:14:27;;;;;;;8.27;1.00;;;32.90;27.30;;;;;;7592006;23;20539;-75
2023/08/30 13:17:27;;;;;;;1.58;1.20;;;33.70;26.60;;;;;;7592567;23;20068;-74
2023/08/30 13:20:28;;;;;;;1.15;1.05;;;34.50;26.00;;;;;;7592366;23;20672;-75
2023/08/30 13:23:29;;;;;;;1.38;1.00;;;35.10;24.80;;;;;;7592885;23;20097;-74
2023/08/30 13:26:30;;;;;;;0.90;0.90;;;35.30;24.60;;;;;;7593314;23;20013;-75
2023/08/30 13:29:31;;;;;;;1.45;0.98;;;35.90;24.20;;;;;;7565985;23;20048;-73
2023/08/30 13:32:32;;;;;;;1.52;0.90;;;36.40;23.40;;;;;;7565566;23;20038;-73
2023/08/30 13:35:32;;;;;;;1.15;1.05;;;36.50;23.00;;;;;;7565272;23;20010;-74
2023/08/30 13:38:33;;;;;;;1.75;1.15;;;36.30;22.90;;;;;;7591704;23;20512;-72
2023/08/30 13:41:35;;;;;;;0.90;0.80;;;36.20;23.00;;;;;;7591630;23;20049;-75
2023/08/30 13:44:37;;;;;;;1.45;0.90;;;36.10;23.00;;;;;;7591645;23;20089;-76
2023/08/30 13:47:38;;;;;;;1.88;1.10;;;35.40;23.40;;;;;;7591814;23;20061;-75
2023/08/30 13:50:42;;;;;;;2.47;1.20;;;35.20;23.60;;;;;;7591191;23;20621;-76
2023/08/30 13:53:44;;;;;;;1.38;0.95;;;35.20;23.70;;;;;;7591585;23;20016;-74
2023/08/30 13:56:45;;;;;;;1.65;1.02;;;35.70;23.60;;;;;;7591327;23;20002;-75
2023/08/30 13:59:45;;;;;;;1.48;1.00;;;36.30;23.10;;;;;;7565469;23;20479;-72
2023/08/30 14:02:46;;;;;;;1.45;0.90;;;36.80;22.60;;;;;;7591839;23;20084;-74
2023/08/30 14:05:47;;;;;;;2.58;1.15;;;37.20;22.10;;;;;;7540779;23;20014;-76
2023/08/30 14:08:48;;;;;;;4.05;1.10;;;37.10;22.00;;;;;;7564700;23;20017;-74
2023/08/30 14:11:49;;;;;;;1.05;0.90;;;36.50;22.70;;;;;;7591036;23;20010;-75
2023/08/30 14:14:51;;;;;;;1.95;1.20;;;35.60;23.50;;;;;;7565090;23;20352;-74
2023/08/30 14:17:52;;;;;;;1.90;1.00;;;34.50;24.10;;;;;;7591419;23;20009;-74
2023/08/30 14:20:57;;;;;;;1.98;1.20;;;33.60;24.80;;;;;;7591549;23;20036;-75
2023/08/30 14:23:58;;;;;;;1.75;1.33;;;32.60;25.50;;;;;;7564987;23;20391;-74
2023/08/30 14:27:03;;;;;;;1.45;1.25;;;31.80;26.30;;;;;;7591866;23;20014;-74
2023/08/30 14:30:05;;;;;;;1.55;1.08;;;31.10;27.00;;;;;;7590991;23;20032;-74
2023/08/30 14:33:05;;;;;;;1.15;1.00;;;30.60;27.60;;;;;;7565279;23;20085;-75
2023/08/30 14:36:10;;;;;;;2.28;1.10;;;30.20;28.20;;;;;;7591710;23;20006;-75
2023/08/30 14:39:11;;;;;;;2.88;1.08;;;29.70;28.70;;;;;;7591932;23;20316;-73
2023/08/30 14:42:11;;;;;;;1.23;1.13;;;29.40;29.20;;;;;;7591417;23;20021;-75
2023/08/30 14:45:12;;;;;;;1.20;1.05;;;29.10;29.60;;;;;;7565544;23;20176;-75
2023/08/30 14:48:13;;;;;;;1.80;1.00;;;28.90;30.40;;;;;;7591442;23;20044;-75
2023/08/30 14:51:14;;;;;;;5.82;1.08;;;28.80;30.10;;;;;;7590234;23;20053;-74
2023/08/30 14:54:15;;;;;;;2.45;1.08;;;28.70;30.30;;;;;;7564581;23;20336;-75
2023/08/30 14:57:16;;;;;;;4.10;1.27;;;28.60;30.30;;;;;;7590831;23;20328;-73
2023/08/30 15:00:17;;;;;;;2.83;1.20;;;28.60;30.60;;;;;;7590460;23;20049;-75
2023/08/30 15:03:20;;;;;;;2.13;1.15;;;28.50;30.80;;;;;;7590735;23;20021;-74
2023/08/30 15:06:21;;;;;;;1.13;1.02;;;28.30;31.00;;;;;;7563936;23;20211;-74
2023/08/30 15:09:22;;;;;;;1.52;1.15;;;28.20;31.20;;;;;;7589648;23;20029;-75
2023/08/30 15:12:23;;;;;;;1.55;1.42;;;28.10;31.30;;;;;;7589846;23;20010;-74
2023/08/30 15:15:24;;;;;;;2.33;1.13;;;27.90;31.60;;;;;;7589584;23;20006;-74
2023/08/30 15:18:24;;;;;;;1.92;1.45;;;27.70;31.80;;;;;;7564153;23;20026;-74
2023/08/30 15:21:25;;;;;;;1.98;1.35;;;27.60;32.10;;;;;;7563706;23;20013;-72
2023/08/30 15:24:26;;;;;;;1.65;1.20;;;27.40;32.30;;;;;;7589856;23;20066;-75
2023/08/30 15:27:27;;;;;;;2.03;1.25;;;27.30;32.40;;;;;;7539548;23;20428;-75
2023/08/30 15:30:28;;;;;;;2.63;1.25;;;27.20;32.40;;;;;;7590140;23;20010;-73
2023/08/30 15:33:28;;;;;;;1.60;1.10;;;27.20;32.50;;;;;;7590310;23;20010;-76
2023/08/30 15:36:30;;;;;;;3.33;1.35;;;27.20;32.50;;;;;;7590749;23;20014;-75
2023/08/30 15:39:31;;;;;;;2.45;1.30;;;27.10;32.60;;;;;;7589562;23;20636;-74
2023/08/30 15:42:32;;;;;;;1.83;1.30;;;27.10;32.60;;;;;;7563734;23;20022;-74
2023/08/30 15:45:34;;;;;;;3.72;1.20;;;27.10;32.70;;;;;;7563834;23;20038;-75
2023/08/30 15:48:36;;;;;;;2.38;1.38;;;27.20;32.60;;;;;;7563491;23;20077;-75